Time;durP1;ratioP1;P1;durP2;ratioP2;P2;SDS_P1;SDS_P2;PMS_P1;PMS_P2;Temp;Humidity;BMP_temperature;BMP_pressure;BME280_temperature;BME280_humidity;BME280_pressure;Samples;Min_cycle;Max_cycle;Signal;HPM_P1;HPM_P2
2022/08/29 00:00:14;;;;;;;7.40;5.80;;;;;;;;;;5040609;28;24454;-46
2022/08/29 00:02:39;;;;;;;5.97;5.40;;;;;;;;;;5033913;28;24419;-46
2022/08/29 00:05:05;;;;;;;6.50;5.63;;;;;;;;;;5038836;28;24416;-45
2022/08/29 00:07:30;;;;;;;6.75;6.05;;;;;;;;;;5035490;28;24474;-45
2022/08/29 00:09:55;;;;;;;6.30;5.70;;;;;;;;;;5037762;28;24973;-45
2022/08/29 00:12:20;;;;;;;7.40;6.17;;;;;;;;;;5042018;28;24411;-45
2022/08/29 00:14:45;;;;;;;5.95;5.40;;;;;;;;;;5036937;28;24778;-44
2022/08/29 00:17:10;;;;;;;7.60;5.97;;;;;;;;;;5038235;28;24821;-45
2022/08/29 00:19:36;;;;;;;5.82;5.22;;;;;;;;;;5040622;28;24778;-52
2022/08/29 00:22:01;;;;;;;7.22;6.20;;;;;;;;;;5039504;28;25046;-45
2022/08/29 00:24:26;;;;;;;7.00;5.88;;;;;;;;;;5032326;28;24455;-46
2022/08/29 00:26:51;;;;;;;6.10;5.50;;;;;;;;;;5034968;28;24415;-46
2022/08/29 00:29:16;;;;;;;6.27;5.67;;;;;;;;;;5038068;28;25100;-46
2022/08/29 00:31:41;;;;;;;8.20;6.00;;;;;;;;;;5034955;28;25021;-47
2022/08/29 00:34:06;;;;;;;6.07;5.50;;;;;;;;;;5035817;28;24438;-46
2022/08/29 00:36:32;;;;;;;6.40;5.80;;;;;;;;;;5031453;28;24457;-45
2022/08/29 00:38:57;;;;;;;7.45;6.75;;;;;;;;;;5042014;28;24832;-45
2022/08/29 00:41:22;;;;;;;6.80;6.10;;;;;;;;;;5041487;28;24592;-46
2022/08/29 00:43:47;;;;;;;7.25;6.55;;;;;;;;;;5035506;28;24419;-46
2022/08/29 00:46:30;;;;;;;6.70;6.15;;;;;;;;;;5033830;28;24634;-45
2022/08/29 00:48:56;;;;;;;7.10;6.40;;;;;;;;;;5026517;28;24416;-45
2022/08/29 00:51:22;;;;;;;6.80;6.20;;;;;;;;;;5036154;28;24557;-44
2022/08/29 00:53:51;;;;;;;9.60;8.30;;;;;;;;;;5028678;28;24502;-44
2022/08/29 00:56:16;;;;;;;10.50;8.93;;;;;;;;;;5029957;28;24416;-45
2022/08/29 00:59:21;;;;;;;13.40;10.40;;;;;;;;;;5038042;28;24476;-45
2022/08/29 01:01:46;;;;;;;9.65;8.20;;;;;;;;;;5039900;28;24522;-45
2022/08/29 01:04:12;;;;;;;9.03;7.73;;;;;;;;;;5042696;28;24514;-45
2022/08/29 01:06:38;;;;;;;8.70;6.80;;;;;;;;;;5038702;28;24497;-44
2022/08/29 01:09:04;;;;;;;7.72;7.03;;;;;;;;;;5041003;28;25027;-44
2022/08/29 01:14:16;;;;;;;7.10;6.45;;;;;;;;;;5031741;28;24443;-44
2022/08/29 01:16:42;;;;;;;6.67;6.00;;;;;;;;;;5034458;28;24427;-45
2022/08/29 01:19:13;;;;;;;6.00;5.40;;;;;;;;;;5031713;28;24829;-44
2022/08/29 01:21:58;;;;;;;5.13;4.63;;;;;;;;;;5032621;28;24473;-46
2022/08/29 01:24:31;;;;;;;6.47;4.63;;;;;;;;;;5034453;28;24468;-45
2022/08/29 01:26:57;;;;;;;5.80;4.90;;;;;;;;;;5030078;28;24429;-45
2022/08/29 01:29:22;;;;;;;5.40;4.47;;;;;;;;;;5036046;28;24746;-45
2022/08/29 01:31:48;;;;;;;5.53;4.40;;;;;;;;;;5032694;28;24424;-46
2022/08/29 01:34:14;;;;;;;5.28;4.45;;;;;;;;;;5029923;28;24442;-46
2022/08/29 01:36:53;;;;;;;5.80;4.90;;;;;;;;;;5043875;28;24482;-45
2022/08/29 01:39:20;;;;;;;4.50;4.10;;;;;;;;;;5032701;28;24466;-46
2022/08/29 01:41:46;;;;;;;5.28;4.78;;;;;;;;;;5039719;28;24482;-46
2022/08/29 01:44:13;;;;;;;5.17;4.67;;;;;;;;;;5038548;28;24423;-46
2022/08/29 01:46:38;;;;;;;4.90;4.40;;;;;;;;;;5039187;28;24455;-47
2022/08/29 01:49:04;;;;;;;5.32;4.50;;;;;;;;;;5031709;28;24467;-47
2022/08/29 01:51:30;;;;;;;6.78;4.60;;;;;;;;;;5038772;28;25047;-47
2022/08/29 01:53:56;;;;;;;5.35;4.85;;;;;;;;;;5046190;28;24428;-45
2022/08/29 01:56:22;;;;;;;5.10;4.60;;;;;;;;;;5037780;28;24462;-46
2022/08/29 01:58:48;;;;;;;7.47;4.75;;;;;;;;;;5032652;28;24466;-46
2022/08/29 02:01:15;;;;;;;5.22;4.75;;;;;;;;;;5036124;28;24451;-46
2022/08/29 02:03:41;;;;;;;5.72;4.60;;;;;;;;;;5038053;28;24454;-46
2022/08/29 02:06:08;;;;;;;6.77;4.90;;;;;;;;;;5033056;28;24502;-46
2022/08/29 02:08:33;;;;;;;4.90;4.50;;;;;;;;;;5030405;28;24664;-46
2022/08/29 02:10:59;;;;;;;5.20;4.37;;;;;;;;;;5036815;28;25069;-46
2022/08/29 02:13:24;;;;;;;6.50;4.50;;;;;;;;;;5035778;28;24415;-46
2022/08/29 02:15:49;;;;;;;5.13;3.90;;;;;;;;;;5039403;28;24419;-46
2022/08/29 02:18:16;;;;;;;4.70;4.20;;;;;;;;;;5034497;28;24833;-45
2022/08/29 02:20:41;;;;;;;4.43;4.03;;;;;;;;;;5035745;28;24461;-46
2022/08/29 02:23:06;;;;;;;4.10;3.70;;;;;;;;;;5036643;28;25010;-46
2022/08/29 02:25:40;;;;;;;5.88;4.60;;;;;;;;;;5034239;28;24516;-45
2022/08/29 02:28:06;;;;;;;4.10;3.70;;;;;;;;;;5030472;28;24529;-45
2022/08/29 02:30:32;;;;;;;4.97;4.47;;;;;;;;;;5040261;28;24513;-47
2022/08/29 02:32:57;;;;;;;4.95;4.07;;;;;;;;;;5035181;28;24420;-46
2022/08/29 02:35:22;;;;;;;5.47;4.40;;;;;;;;;;5042434;28;24443;-46
2022/08/29 02:37:48;;;;;;;4.80;4.30;;;;;;;;;;5043835;28;24430;-46
2022/08/29 02:40:13;;;;;;;5.20;3.90;;;;;;;;;;5033406;28;24424;-46
2022/08/29 02:42:38;;;;;;;4.80;4.30;;;;;;;;;;5042045;28;24960;-45
2022/08/29 02:45:04;;;;;;;5.70;4.80;;;;;;;;;;5033219;28;24514;-46
2022/08/29 02:47:31;;;;;;;5.20;4.40;;;;;;;;;;5038380;28;24415;-46
2022/08/29 02:49:56;;;;;;;4.80;4.40;;;;;;;;;;5037138;28;24427;-46
2022/08/29 02:52:21;;;;;;;4.90;4.40;;;;;;;;;;5032835;28;24472;-46
2022/08/29 02:54:47;;;;;;;5.18;4.47;;;;;;;;;;5031858;28;24420;-47
2022/08/29 02:57:12;;;;;;;5.47;4.97;;;;;;;;;;5036434;28;24569;-47
2022/08/29 02:59:37;;;;;;;5.73;4.70;;;;;;;;;;5032201;28;24724;-47
2022/08/29 03:02:02;;;;;;;6.18;5.00;;;;;;;;;;5030542;28;24631;-47
2022/08/29 03:04:27;;;;;;;5.50;5.00;;;;;;;;;;5043017;28;24412;-46
2022/08/29 03:06:52;;;;;;;5.63;5.07;;;;;;;;;;5036478;28;24952;-47
2022/08/29 03:09:18;;;;;;;6.87;5.70;;;;;;;;;;5034634;28;24439;-48
2022/08/29 03:11:43;;;;;;;6.00;4.80;;;;;;;;;;5032322;28;24435;-47
2022/08/29 03:14:08;;;;;;;6.90;5.00;;;;;;;;;;5037992;28;25506;-48
2022/08/29 03:16:33;;;;;;;5.43;4.93;;;;;;;;;;5038925;28;24501;-47
2022/08/29 03:18:58;;;;;;;6.72;5.90;;;;;;;;;;5036178;28;24501;-46
2022/08/29 03:21:24;;;;;;;6.30;5.70;;;;;;;;;;5037397;28;24437;-46
2022/08/29 03:23:50;;;;;;;5.95;5.22;;;;;;;;;;5041990;28;24793;-46
2022/08/29 03:26:16;;;;;;;5.80;5.30;;;;;;;;;;5033619;28;25051;-47
2022/08/29 03:28:41;;;;;;;6.55;5.90;;;;;;;;;;5036504;28;24493;-48
2022/08/29 03:31:06;;;;;;;5.63;5.13;;;;;;;;;;5039877;28;24423;-47
2022/08/29 03:33:31;;;;;;;6.53;4.90;;;;;;;;;;5045004;28;24430;-47
2022/08/29 03:35:56;;;;;;;6.03;5.50;;;;;;;;;;5032225;28;24973;-46
2022/08/29 03:38:21;;;;;;;6.35;5.75;;;;;;;;;;5028283;28;24491;-46
2022/08/29 03:40:47;;;;;;;6.30;5.00;;;;;;;;;;5040811;28;24484;-47
2022/08/29 03:43:12;;;;;;;6.10;5.50;;;;;;;;;;5042820;28;24766;-48
2022/08/29 03:45:37;;;;;;;6.40;5.23;;;;;;;;;;5030002;28;25116;-50
2022/08/29 03:48:02;;;;;;;7.57;5.63;;;;;;;;;;5044436;28;24438;-46
2022/08/29 03:50:28;;;;;;;8.27;5.70;;;;;;;;;;5040502;28;24419;-47
2022/08/29 03:52:53;;;;;;;5.60;5.10;;;;;;;;;;5031546;28;24419;-46
2022/08/29 03:55:19;;;;;;;5.82;5.03;;;;;;;;;;5039772;28;24411;-46
2022/08/29 03:57:44;;;;;;;6.20;5.50;;;;;;;;;;5038637;28;24438;-46
2022/08/29 04:00:11;;;;;;;7.20;5.60;;;;;;;;;;5031946;28;24474;-47
2022/08/29 04:02:36;;;;;;;7.03;5.78;;;;;;;;;;5030014;28;24455;-47
2022/08/29 04:05:08;;;;;;;5.77;5.10;;;;;;;;;;5032809;28;24470;-47
2022/08/29 04:07:42;;;;;;;5.50;5.00;;;;;;;;;;5035012;28;24469;-46
2022/08/29 04:10:09;;;;;;;5.40;4.90;;;;;;;;;;5038332;28;24533;-47
2022/08/29 04:12:34;;;;;;;4.90;4.50;;;;;;;;;;5037928;28;24437;-47
2022/08/29 04:14:59;;;;;;;5.30;4.80;;;;;;;;;;5044231;28;25298;-47
2022/08/29 04:17:24;;;;;;;7.60;5.20;;;;;;;;;;5044133;28;24443;-47
2022/08/29 04:19:49;;;;;;;6.10;4.68;;;;;;;;;;5042281;28;24423;-47
2022/08/29 04:22:15;;;;;;;5.85;5.35;;;;;;;;;;5032021;28;24950;-46
2022/08/29 04:24:40;;;;;;;6.25;5.65;;;;;;;;;;5037541;28;24513;-47
2022/08/29 04:27:05;;;;;;;6.10;5.07;;;;;;;;;;5035125;28;24534;-47
2022/08/29 04:29:32;;;;;;;6.13;5.53;;;;;;;;;;5031204;28;24424;-47
2022/08/29 04:31:57;;;;;;;7.35;5.72;;;;;;;;;;5037669;28;24451;-45
2022/08/29 04:34:22;;;;;;;6.80;5.37;;;;;;;;;;5042699;28;24453;-46
2022/08/29 04:36:47;;;;;;;6.40;5.53;;;;;;;;;;5035920;28;24502;-46
2022/08/29 04:39:13;;;;;;;8.48;5.72;;;;;;;;;;5039946;28;24743;-46
2022/08/29 04:41:38;;;;;;;5.97;5.37;;;;;;;;;;5039612;28;24789;-46
2022/08/29 04:44:04;;;;;;;5.68;5.07;;;;;;;;;;5037213;28;24508;-46
2022/08/29 04:46:29;;;;;;;5.78;4.90;;;;;;;;;;5029474;28;24427;-47
2022/08/29 04:48:54;;;;;;;4.90;4.40;;;;;;;;;;5037880;28;24440;-47
2022/08/29 04:51:20;;;;;;;6.85;5.20;;;;;;;;;;5038561;28;24992;-47
2022/08/29 04:53:46;;;;;;;6.80;5.57;;;;;;;;;;5042815;28;24473;-47
2022/08/29 04:56:12;;;;;;;6.45;4.85;;;;;;;;;;5029717;28;24527;-46
2022/08/29 04:58:38;;;;;;;6.30;5.03;;;;;;;;;;5025784;28;24506;-46
2022/08/29 05:01:04;;;;;;;6.93;4.87;;;;;;;;;;5032120;28;24442;-46
2022/08/29 05:03:29;;;;;;;5.00;4.50;;;;;;;;;;5037910;28;24419;-46
2022/08/29 05:06:00;;;;;;;5.10;4.07;;;;;;;;;;5036958;28;24459;-46
2022/08/29 05:08:25;;;;;;;6.35;4.50;;;;;;;;;;5025616;28;25051;-46
2022/08/29 05:10:51;;;;;;;5.90;4.20;;;;;;;;;;5029658;28;24478;-47
2022/08/29 05:13:16;;;;;;;5.10;4.60;;;;;;;;;;5044010;28;24386;-46
2022/08/29 05:15:41;;;;;;;4.90;4.40;;;;;;;;;;5044009;28;24396;-45
2022/08/29 05:18:06;;;;;;;5.70;4.37;;;;;;;;;;5032389;28;24425;-46
2022/08/29 05:20:31;;;;;;;5.43;4.38;;;;;;;;;;5035074;28;24408;-47
2022/08/29 05:22:57;;;;;;;5.90;4.20;;;;;;;;;;5033345;28;24487;-47
2022/08/29 05:25:23;;;;;;;5.32;4.10;;;;;;;;;;5029296;28;24470;-47
2022/08/29 05:27:48;;;;;;;5.00;4.27;;;;;;;;;;5026440;28;24419;-46
2022/08/29 05:30:15;;;;;;;5.00;4.40;;;;;;;;;;5026269;28;24396;-47
2022/08/29 05:32:40;;;;;;;6.03;3.90;;;;;;;;;;5027243;28;24452;-49
2022/08/29 05:35:05;;;;;;;6.68;4.38;;;;;;;;;;5026338;28;24459;-49
2022/08/29 05:37:30;;;;;;;6.37;3.83;;;;;;;;;;5029887;28;24427;-49
2022/08/29 05:39:55;;;;;;;4.75;4.00;;;;;;;;;;5046196;28;24754;-50
2022/08/29 05:42:22;;;;;;;6.23;4.10;;;;;;;;;;5045250;28;24838;-49
2022/08/29 05:44:47;;;;;;;6.32;4.20;;;;;;;;;;5030857;28;24431;-49
2022/08/29 05:47:13;;;;;;;5.43;3.77;;;;;;;;;;5032238;28;24477;-48
2022/08/29 05:49:40;;;;;;;4.75;3.70;;;;;;;;;;5028591;28;24436;-48
2022/08/29 05:52:05;;;;;;;5.20;3.90;;;;;;;;;;5027864;28;24428;-48
2022/08/29 05:54:32;;;;;;;5.30;3.40;;;;;;;;;;5030462;28;24423;-47
2022/08/29 05:56:57;;;;;;;5.80;3.38;;;;;;;;;;5033131;28;24434;-47
2022/08/29 05:59:22;;;;;;;5.35;3.40;;;;;;;;;;5036805;28;24415;-47
2022/08/29 06:01:47;;;;;;;5.30;3.42;;;;;;;;;;5034286;28;24697;-47
2022/08/29 06:04:12;;;;;;;4.37;3.37;;;;;;;;;;5043609;28;24407;-47
2022/08/29 06:06:38;;;;;;;5.20;3.60;;;;;;;;;;5034226;28;24435;-48
2022/08/29 06:09:04;;;;;;;4.30;3.20;;;;;;;;;;5028608;28;24458;-47
2022/08/29 06:11:30;;;;;;;5.27;3.50;;;;;;;;;;5043075;28;24434;-47
2022/08/29 06:13:55;;;;;;;6.72;3.78;;;;;;;;;;5046355;28;24384;-48
2022/08/29 06:16:21;;;;;;;5.57;3.40;;;;;;;;;;5030866;28;25032;-47
2022/08/29 06:18:46;;;;;;;4.13;3.30;;;;;;;;;;5031172;28;24997;-48
2022/08/29 06:21:12;;;;;;;4.90;3.30;;;;;;;;;;5043237;28;24494;-49
2022/08/29 06:23:38;;;;;;;4.73;3.60;;;;;;;;;;5049727;28;24965;-48
2022/08/29 06:26:04;;;;;;;6.27;3.63;;;;;;;;;;5035999;28;24420;-48
2022/08/29 06:28:30;;;;;;;6.10;4.30;;;;;;;;;;5026380;28;25034;-48
2022/08/29 06:30:55;;;;;;;4.50;3.60;;;;;;;;;;5040984;28;24998;-48
2022/08/29 06:33:20;;;;;;;4.93;3.47;;;;;;;;;;5037588;28;24430;-48
2022/08/29 06:35:45;;;;;;;5.97;4.00;;;;;;;;;;5041299;28;24416;-50
2022/08/29 06:38:10;;;;;;;6.03;4.00;;;;;;;;;;5040412;28;24491;-50
2022/08/29 06:40:36;;;;;;;7.70;4.50;;;;;;;;;;5046950;28;24416;-51
2022/08/29 06:43:01;;;;;;;5.78;4.10;;;;;;;;;;5045700;28;24702;-48
2022/08/29 06:45:26;;;;;;;5.40;4.20;;;;;;;;;;5049188;28;24399;-49
2022/08/29 06:47:51;;;;;;;4.30;3.60;;;;;;;;;;5049356;28;24411;-49
2022/08/29 06:50:17;;;;;;;5.55;4.15;;;;;;;;;;5032589;28;24409;-49
2022/08/29 06:52:42;;;;;;;5.72;3.90;;;;;;;;;;5034484;28;24430;-49
2022/08/29 06:55:11;;;;;;;6.57;4.37;;;;;;;;;;5028621;28;24485;-50
2022/08/29 06:57:41;;;;;;;5.50;3.97;;;;;;;;;;5029181;28;24499;-49
2022/08/29 07:00:09;;;;;;;3.75;3.35;;;;;;;;;;5036076;28;24407;-49
2022/08/29 07:02:34;;;;;;;5.18;3.78;;;;;;;;;;5048961;28;24991;-49
2022/08/29 07:04:59;;;;;;;6.95;4.20;;;;;;;;;;5044810;28;24431;-49
2022/08/29 07:07:24;;;;;;;4.72;3.90;;;;;;;;;;5028081;28;24803;-48
2022/08/29 07:09:49;;;;;;;5.88;4.00;;;;;;;;;;5048970;28;24441;-49
2022/08/29 07:12:14;;;;;;;4.65;3.75;;;;;;;;;;5048803;28;24395;-49
2022/08/29 07:14:40;;;;;;;4.35;3.60;;;;;;;;;;5037061;28;24823;-49
2022/08/29 07:17:05;;;;;;;5.55;3.30;;;;;;;;;;5028709;28;24403;-49
2022/08/29 07:19:30;;;;;;;6.55;3.60;;;;;;;;;;5030191;28;24453;-49
2022/08/29 07:21:56;;;;;;;7.65;4.40;;;;;;;;;;5036196;28;25369;-49
2022/08/29 07:24:21;;;;;;;6.97;3.60;;;;;;;;;;5049061;28;24379;-49
2022/08/29 07:26:46;;;;;;;7.50;4.07;;;;;;;;;;5048701;28;24972;-49
2022/08/29 07:29:13;;;;;;;6.25;4.22;;;;;;;;;;5048406;28;25088;-48
2022/08/29 07:31:38;;;;;;;8.25;4.00;;;;;;;;;;5029381;28;24407;-49
2022/08/29 07:34:04;;;;;;;6.77;4.47;;;;;;;;;;5028476;28;25076;-49
2022/08/29 07:36:32;;;;;;;5.28;3.83;;;;;;;;;;5028422;28;24415;-48
2022/08/29 07:38:57;;;;;;;6.25;3.70;;;;;;;;;;5029912;28;24822;-48
2022/08/29 07:41:23;;;;;;;6.13;3.85;;;;;;;;;;5028403;28;25063;-49
2022/08/29 07:43:49;;;;;;;5.00;3.90;;;;;;;;;;5042263;28;24392;-49
2022/08/29 07:46:15;;;;;;;6.20;3.90;;;;;;;;;;5046534;28;24870;-49
2022/08/29 07:48:41;;;;;;;5.95;4.47;;;;;;;;;;5048387;28;24415;-49
2022/08/29 07:51:10;;;;;;;7.40;4.35;;;;;;;;;;5030501;28;24427;-48
2022/08/29 07:53:36;;;;;;;6.15;3.63;;;;;;;;;;5042766;28;24762;-49
2022/08/29 07:56:05;;;;;;;6.40;4.10;;;;;;;;;;5046216;28;24421;-49
2022/08/29 07:58:30;;;;;;;5.35;3.55;;;;;;;;;;5033963;28;24420;-49
2022/08/29 08:00:56;;;;;;;5.65;3.85;;;;;;;;;;5027679;28;24398;-49
2022/08/29 08:03:21;;;;;;;5.67;3.80;;;;;;;;;;5028965;28;24470;-49
2022/08/29 08:05:46;;;;;;;5.68;3.88;;;;;;;;;;5027860;28;24426;-49
2022/08/29 08:08:11;;;;;;;6.83;4.03;;;;;;;;;;5045758;28;24474;-49
2022/08/29 08:10:37;;;;;;;4.53;3.75;;;;;;;;;;5047652;28;24960;-49
2022/08/29 08:13:02;;;;;;;6.53;3.47;;;;;;;;;;5034024;28;24419;-49
2022/08/29 08:15:27;;;;;;;6.20;4.20;;;;;;;;;;5025928;28;24424;-49
2022/08/29 08:17:52;;;;;;;7.10;3.67;;;;;;;;;;5027675;28;24763;-48
2022/08/29 08:20:18;;;;;;;6.93;3.92;;;;;;;;;;5027696;28;24469;-49
2022/08/29 08:22:43;;;;;;;5.30;3.60;;;;;;;;;;5027145;28;24427;-49
2022/08/29 08:25:08;;;;;;;5.80;4.00;;;;;;;;;;5027400;28;24783;-49
2022/08/29 08:27:33;;;;;;;6.00;3.80;;;;;;;;;;5027642;28;24497;-49
2022/08/29 08:29:58;;;;;;;6.88;3.90;;;;;;;;;;5027595;28;24383;-49
2022/08/29 08:32:24;;;;;;;5.45;3.67;;;;;;;;;;5035815;28;24473;-49
2022/08/29 08:34:49;;;;;;;6.13;3.70;;;;;;;;;;5027677;28;25043;-49
2022/08/29 08:37:16;;;;;;;7.00;3.80;;;;;;;;;;5038181;28;24989;-48
2022/08/29 08:39:41;;;;;;;6.22;3.90;;;;;;;;;;5047310;28;24443;-49
2022/08/29 08:42:31;;;;;;;7.35;4.00;;;;;;;;;;5047002;28;24423;-49
2022/08/29 08:45:02;;;;;;;5.10;3.80;;;;;;;;;;5046218;28;24422;-48
2022/08/29 08:47:29;;;;;;;5.65;3.63;;;;;;;;;;5045377;28;24495;-49
2022/08/29 08:50:00;;;;;;;5.90;4.13;;;;;;;;;;5047142;28;24391;-49
2022/08/29 08:52:31;;;;;;;6.95;4.10;;;;;;;;;;5047007;28;24390;-49
2022/08/29 08:55:02;;;;;;;8.35;4.40;;;;;;;;;;5043828;28;24455;-49
2022/08/29 08:57:35;;;;;;;6.50;3.70;;;;;;;;;;5027172;28;24449;-49
2022/08/29 09:00:02;;;;;;;5.43;3.80;;;;;;;;;;5027106;28;24458;-49
2022/08/29 09:02:34;;;;;;;7.80;4.00;;;;;;;;;;5026916;28;24946;-48
2022/08/29 09:05:18;;;;;;;5.70;3.70;;;;;;;;;;5030680;28;24841;-49
2022/08/29 09:07:46;;;;;;;4.60;3.70;;;;;;;;;;5042870;28;25042;-49
2022/08/29 09:10:24;;;;;;;7.53;3.85;;;;;;;;;;5041745;28;24527;-49
2022/08/29 09:12:55;;;;;;;7.20;3.60;;;;;;;;;;5047051;28;24382;-49
2022/08/29 09:15:22;;;;;;;7.15;4.30;;;;;;;;;;5046565;28;25088;-49
2022/08/29 09:17:49;;;;;;;5.93;3.95;;;;;;;;;;5045558;28;24462;-49
2022/08/29 09:20:21;;;;;;;6.13;3.80;;;;;;;;;;5027490;28;24405;-50
2022/08/29 09:23:00;;;;;;;7.05;3.88;;;;;;;;;;5026677;28;24469;-50
2022/08/29 09:25:28;;;;;;;5.75;3.97;;;;;;;;;;5029021;28;24981;-50
2022/08/29 09:27:53;;;;;;;5.68;3.80;;;;;;;;;;5026863;28;24515;-49
2022/08/29 09:30:23;;;;;;;6.00;3.90;;;;;;;;;;5026711;28;24478;-49
2022/08/29 09:32:53;;;;;;;6.15;4.20;;;;;;;;;;5034380;28;24494;-48
2022/08/29 09:35:23;;;;;;;6.50;4.10;;;;;;;;;;5046220;28;24412;-49
2022/08/29 09:37:59;;;;;;;6.10;3.95;;;;;;;;;;5044648;28;24380;-48
2022/08/29 09:40:39;;;;;;;7.03;3.90;;;;;;;;;;5046084;28;25340;-49
2022/08/29 09:43:04;;;;;;;5.00;3.70;;;;;;;;;;5038527;28;24546;-49
2022/08/29 09:45:29;;;;;;;6.40;4.10;;;;;;;;;;5046595;28;25051;-49
2022/08/29 09:48:07;;;;;;;5.65;3.70;;;;;;;;;;5046094;28;24769;-49
2022/08/29 09:50:32;;;;;;;5.72;3.97;;;;;;;;;;5045316;28;24424;-49
2022/08/29 09:52:59;;;;;;;6.80;4.20;;;;;;;;;;5046184;28;24433;-49
2022/08/29 09:55:33;;;;;;;7.22;3.97;;;;;;;;;;5048791;28;24396;-48
2022/08/29 09:58:01;;;;;;;5.03;3.80;;;;;;;;;;5050109;28;24438;-48
2022/08/29 10:00:30;;;;;;;6.88;4.13;;;;;;;;;;5048502;28;24430;-48
2022/08/29 10:02:57;;;;;;;5.30;3.80;;;;;;;;;;5050301;28;24388;-49
2022/08/29 10:05:27;;;;;;;4.20;3.28;;;;;;;;;;5050013;28;24431;-48
2022/08/29 10:07:52;;;;;;;5.60;3.67;;;;;;;;;;5049798;28;24470;-48
2022/08/29 10:10:19;;;;;;;7.00;4.10;;;;;;;;;;5045239;28;24455;-48
2022/08/29 10:13:07;;;;;;;5.10;3.90;;;;;;;;;;5042677;28;24983;-48
2022/08/29 10:15:39;;;;;;;5.00;3.83;;;;;;;;;;5050034;28;24490;-47
2022/08/29 10:18:24;;;;;;;7.07;4.30;;;;;;;;;;5049691;28;25008;-48
2022/08/29 10:20:49;;;;;;;5.80;4.17;;;;;;;;;;5048694;28;24977;-48
2022/08/29 10:23:20;;;;;;;6.60;4.20;;;;;;;;;;5048911;28;25003;-48
2022/08/29 10:25:45;;;;;;;4.90;4.38;;;;;;;;;;5050047;28;24605;-48
2022/08/29 10:28:13;;;;;;;5.50;4.03;;;;;;;;;;5049442;28;25039;-48
2022/08/29 10:30:55;;;;;;;6.40;4.10;;;;;;;;;;5048489;28;24425;-48
2022/08/29 10:33:47;;;;;;;6.53;3.88;;;;;;;;;;5047330;28;24422;-48
2022/08/29 10:36:26;;;;;;;6.75;4.20;;;;;;;;;;5048214;28;24926;-48
2022/08/29 10:38:56;;;;;;;7.13;4.40;;;;;;;;;;5049448;28;24395;-49
2022/08/29 10:41:26;;;;;;;6.47;4.63;;;;;;;;;;5049120;28;25065;-48
2022/08/29 10:43:57;;;;;;;4.63;3.70;;;;;;;;;;5049281;28;24399;-48
2022/08/29 10:46:31;;;;;;;4.30;3.70;;;;;;;;;;5049303;28;24407;-48
2022/08/29 10:49:00;;;;;;;4.70;4.17;;;;;;;;;;5048762;28;25032;-48
2022/08/29 10:51:33;;;;;;;6.32;4.40;;;;;;;;;;5049142;28;24395;-48
2022/08/29 10:54:24;;;;;;;5.88;3.53;;;;;;;;;;5048933;28;24391;-48
2022/08/29 10:56:50;;;;;;;5.43;3.73;;;;;;;;;;5048519;28;24508;-48
2022/08/29 10:59:27;;;;;;;4.07;3.60;;;;;;;;;;5048631;28;24449;-48
2022/08/29 11:02:07;;;;;;;5.82;3.58;;;;;;;;;;5048663;28;24805;-48
2022/08/29 11:04:36;;;;;;;7.47;4.47;;;;;;;;;;5028876;28;25010;-48
2022/08/29 11:07:06;;;;;;;6.93;3.90;;;;;;;;;;5026805;28;24924;-48
2022/08/29 11:09:37;;;;;;;4.57;3.70;;;;;;;;;;5028675;28;24535;-48
2022/08/29 11:12:06;;;;;;;4.32;3.65;;;;;;;;;;5029407;28;24419;-48
2022/08/29 11:14:35;;;;;;;5.10;3.80;;;;;;;;;;5048452;28;24399;-48
2022/08/29 11:17:02;;;;;;;5.70;3.50;;;;;;;;;;5048313;28;24399;-48
2022/08/29 11:19:30;;;;;;;4.28;3.33;;;;;;;;;;5048624;28;24395;-48
2022/08/29 11:21:59;;;;;;;7.37;3.60;;;;;;;;;;5048697;28;24406;-48
2022/08/29 11:24:26;;;;;;;7.78;4.30;;;;;;;;;;5047940;28;24386;-48
2022/08/29 11:26:59;;;;;;;4.97;3.70;;;;;;;;;;5048639;28;24429;-48
2022/08/29 11:29:39;;;;;;;4.50;3.38;;;;;;;;;;5048208;28;24514;-48
2022/08/29 11:32:15;;;;;;;4.78;3.50;;;;;;;;;;5036092;28;24427;-48
2022/08/29 11:34:56;;;;;;;4.87;3.00;;;;;;;;;;5028091;28;24420;-48
2022/08/29 11:37:40;;;;;;;5.30;3.80;;;;;;;;;;5028362;28;24388;-48
2022/08/29 11:40:13;;;;;;;4.70;3.70;;;;;;;;;;5027859;28;25238;-48
2022/08/29 11:42:40;;;;;;;4.65;3.53;;;;;;;;;;5028089;28;24438;-48
2022/08/29 11:45:06;;;;;;;4.60;3.40;;;;;;;;;;5028701;28;24446;-48
2022/08/29 11:47:37;;;;;;;5.05;3.50;;;;;;;;;;5027728;28;24767;-49
2022/08/29 11:50:05;;;;;;;3.87;3.27;;;;;;;;;;5027851;28;24475;-49
2022/08/29 11:52:30;;;;;;;4.53;3.50;;;;;;;;;;5028083;28;24384;-49
2022/08/29 11:54:58;;;;;;;3.80;3.00;;;;;;;;;;5028025;28;24950;-48
2022/08/29 11:57:30;;;;;;;4.82;3.17;;;;;;;;;;5034458;28;24494;-48
2022/08/29 11:59:56;;;;;;;5.70;3.35;;;;;;;;;;5047852;28;24498;-48
2022/08/29 12:02:30;;;;;;;4.18;2.72;;;;;;;;;;5047506;28;24404;-48
2022/08/29 12:04:56;;;;;;;3.83;3.00;;;;;;;;;;5047664;28;24379;-48
2022/08/29 12:07:31;;;;;;;4.00;2.72;;;;;;;;;;5045873;28;24944;-48
2022/08/29 12:09:56;;;;;;;4.70;3.30;;;;;;;;;;5047399;28;24446;-48
2022/08/29 12:12:38;;;;;;;5.27;3.10;;;;;;;;;;5047280;28;24383;-48
2022/08/29 12:15:23;;;;;;;4.03;3.10;;;;;;;;;;5047315;28;24498;-48
2022/08/29 12:17:49;;;;;;;5.07;3.13;;;;;;;;;;5055626;28;24972;-48
2022/08/29 12:20:30;;;;;;;3.40;3.00;;;;;;;;;;5047469;28;24380;-48
2022/08/29 12:23:11;;;;;;;4.63;2.90;;;;;;;;;;5047051;28;24379;-48
2022/08/29 12:25:43;;;;;;;3.90;2.70;;;;;;;;;;5047378;28;24449;-47
2022/08/29 12:28:14;;;;;;;4.55;2.80;;;;;;;;;;5045274;28;24415;-47
2022/08/29 12:30:40;;;;;;;4.18;2.90;;;;;;;;;;5046807;28;24407;-47
2022/08/29 12:33:24;;;;;;;3.40;2.70;;;;;;;;;;5047252;28;24487;-47
2022/08/29 12:36:08;;;;;;;4.05;2.70;;;;;;;;;;5046988;28;24925;-47
2022/08/29 12:38:49;;;;;;;4.30;2.70;;;;;;;;;;5046765;28;24383;-48
2022/08/29 12:41:14;;;;;;;4.28;2.90;;;;;;;;;;5046572;28;24933;-48
2022/08/29 12:43:41;;;;;;;3.00;2.60;;;;;;;;;;5046823;28;24979;-48
2022/08/29 12:46:25;;;;;;;3.20;2.67;;;;;;;;;;5046927;28;24456;-48
2022/08/29 12:48:58;;;;;;;3.77;3.00;;;;;;;;;;5046817;28;24419;-48
2022/08/29 12:51:38;;;;;;;4.70;2.85;;;;;;;;;;5046809;28;24944;-48
2022/08/29 12:54:04;;;;;;;3.20;2.50;;;;;;;;;;5046507;28;24406;-48
2022/08/29 12:56:29;;;;;;;3.67;2.50;;;;;;;;;;5043064;28;24762;-48
2022/08/29 12:58:56;;;;;;;4.57;3.20;;;;;;;;;;5026795;28;24399;-48
2022/08/29 13:01:24;;;;;;;3.00;2.70;;;;;;;;;;5042640;28;24439;-48
2022/08/29 13:03:58;;;;;;;5.10;2.90;;;;;;;;;;5046946;28;24392;-49
2022/08/29 13:06:23;;;;;;;3.40;2.53;;;;;;;;;;5046652;28;24399;-49
2022/08/29 13:08:48;;;;;;;3.88;2.65;;;;;;;;;;5046565;28;24955;-49
2022/08/29 13:11:17;;;;;;;4.50;2.92;;;;;;;;;;5046583;28;24406;-48
2022/08/29 13:13:42;;;;;;;3.92;2.60;;;;;;;;;;5035601;28;24491;-49
2022/08/29 13:16:20;;;;;;;4.07;2.60;;;;;;;;;;5038877;28;24457;-48
2022/08/29 13:18:46;;;;;;;4.78;3.17;;;;;;;;;;5046798;28;24532;-47
2022/08/29 13:21:12;;;;;;;5.05;3.30;;;;;;;;;;5046650;28;24433;-48
2022/08/29 13:23:44;;;;;;;3.10;2.70;;;;;;;;;;5045976;28;24391;-48
2022/08/29 13:26:09;;;;;;;4.63;3.10;;;;;;;;;;5046562;28;24955;-48
2022/08/29 13:28:42;;;;;;;4.47;3.07;;;;;;;;;;5045038;28;25113;-48
2022/08/29 13:31:10;;;;;;;3.80;3.10;;;;;;;;;;5041817;28;24467;-48
2022/08/29 13:33:37;;;;;;;4.50;2.90;;;;;;;;;;5043806;28;24478;-47
2022/08/29 13:36:21;;;;;;;4.40;2.65;;;;;;;;;;5050615;28;24395;-48
2022/08/29 13:39:06;;;;;;;3.85;2.80;;;;;;;;;;5050283;28;24499;-48
2022/08/29 13:41:31;;;;;;;3.45;2.80;;;;;;;;;;5045884;28;24503;-48
2022/08/29 13:43:56;;;;;;;3.63;2.40;;;;;;;;;;5041041;28;24821;-49
2022/08/29 13:46:25;;;;;;;3.70;2.70;;;;;;;;;;5041015;28;24447;-48
2022/08/29 13:48:58;;;;;;;3.43;3.10;;;;;;;;;;5039347;28;24470;-48
2022/08/29 13:51:23;;;;;;;4.00;2.78;;;;;;;;;;5038166;28;24419;-48
2022/08/29 13:53:50;;;;;;;3.10;2.72;;;;;;;;;;5034129;28;26157;-48
2022/08/29 13:56:26;;;;;;;3.72;2.90;;;;;;;;;;5039090;28;24549;-48
2022/08/29 13:58:51;;;;;;;3.97;2.90;;;;;;;;;;5041887;28;24443;-48
2022/08/29 14:01:21;;;;;;;3.30;2.80;;;;;;;;;;5037429;28;24415;-48
2022/08/29 14:03:46;;;;;;;3.13;2.80;;;;;;;;;;5044282;28;24430;-48
2022/08/29 14:06:12;;;;;;;3.40;2.80;;;;;;;;;;5047434;28;24426;-48
2022/08/29 14:08:37;;;;;;;6.38;3.25;;;;;;;;;;5037623;28;24467;-48
2022/08/29 14:11:02;;;;;;;3.40;2.60;;;;;;;;;;5030909;28;24431;-48
2022/08/29 14:13:27;;;;;;;4.30;2.85;;;;;;;;;;5032751;28;24503;-48
2022/08/29 14:15:52;;;;;;;3.60;2.50;;;;;;;;;;5042136;28;24408;-48
2022/08/29 14:18:18;;;;;;;3.30;3.00;;;;;;;;;;5045262;28;24475;-49
2022/08/29 14:20:43;;;;;;;2.92;2.70;;;;;;;;;;5037898;28;24419;-49
2022/08/29 14:23:08;;;;;;;3.67;3.00;;;;;;;;;;5044547;28;24495;-49
2022/08/29 14:25:33;;;;;;;3.53;2.90;;;;;;;;;;5034139;28;24485;-49
2022/08/29 14:27:58;;;;;;;4.80;2.80;;;;;;;;;;5043957;28;24419;-48
2022/08/29 14:30:24;;;;;;;4.20;2.60;;;;;;;;;;5041290;28;24429;-48
2022/08/29 14:32:49;;;;;;;3.30;2.30;;;;;;;;;;5043133;28;24510;-49
2022/08/29 14:35:15;;;;;;;3.10;2.50;;;;;;;;;;5044134;28;24997;-48
2022/08/29 14:37:40;;;;;;;3.20;2.70;;;;;;;;;;5047808;28;24435;-48
2022/08/29 14:40:07;;;;;;;3.20;2.90;;;;;;;;;;5047264;28;24420;-48
2022/08/29 14:42:33;;;;;;;2.90;2.35;;;;;;;;;;5029885;28;25075;-48
2022/08/29 14:44:58;;;;;;;3.10;2.40;;;;;;;;;;5038780;28;24431;-48
2022/08/29 14:47:23;;;;;;;3.57;2.43;;;;;;;;;;5038232;28;24510;-49
2022/08/29 14:49:48;;;;;;;2.78;2.47;;;;;;;;;;5039850;28;24552;-48